Terminal Aerodrome Forecast
Issued by NWS

Current Version | Previous Version | Text Only | Print | Product List | Glossary Off
Versions: 1 2 3 4 5 6 7 8 9 10 11 12 13 14 15 16 17 18 19

437
FTUS41 KPBZ 111136
TAFMGW
TAF
KMGW 111136Z 1112/1212 24005KT P6SM SCT025 BKN040
     FM120000 18005KT P6SM OVC100
     FM120900 22010G22KT P6SM VCSH OVC035
     FM121000 23010G26KT 6SM -SN OVC025=

USA.gov is the U.S. government's official web portal to all federal, state and local government web resources and services.